createdAt,value
2023-01-11T00:02:37.435Z,4.77
2023-01-11T00:05:41.759Z,4.78
2023-01-11T00:08:44.257Z,4.66
2023-01-11T00:11:47.161Z,4.72
2023-01-11T00:14:49.716Z,4.61
2023-01-11T00:17:52.572Z,4.67
2023-01-11T00:20:55.103Z,4.68
2023-01-11T00:23:57.947Z,4.69
2023-01-11T00:27:00.462Z,4.56
2023-01-11T00:30:03.399Z,4.65
2023-01-11T00:33:06.067Z,4.54
2023-01-11T00:36:09.618Z,4.48
2023-01-11T00:39:12.074Z,4.53
2023-01-11T00:42:33.844Z,4.54
2023-01-11T00:45:55.079Z,4.56
2023-01-11T00:48:58.009Z,4.52
2023-01-11T00:52:00.783Z,4.45
2023-01-11T00:55:03.936Z,4.46
2023-01-11T00:58:06.465Z,4.45
2023-01-11T01:01:09.325Z,4.31
2023-01-11T01:04:11.985Z,4.39
2023-01-11T01:07:14.800Z,4.42
2023-01-11T01:10:18.302Z,4.31
2023-01-11T01:13:39.467Z,4.35
2023-01-11T01:16:42.354Z,4.28
2023-01-11T01:19:45.301Z,4.20
2023-01-11T01:22:48.208Z,4.39
2023-01-11T01:25:50.986Z,4.45
2023-01-11T01:28:53.444Z,4.35
2023-01-11T01:31:56.245Z,4.31
2023-01-11T01:34:58.779Z,4.35
2023-01-11T01:38:01.583Z,4.31
2023-01-11T01:41:04.954Z,4.35
2023-01-11T01:44:45.479Z,4.26
2023-01-11T01:47:54.079Z,4.35
2023-01-11T01:51:00.314Z,4.35
2023-01-11T01:54:06.490Z,4.19
2023-01-11T01:57:12.989Z,4.21
2023-01-11T02:00:16.220Z,4.26
2023-01-11T02:03:21.533Z,4.21
2023-01-11T02:06:24.516Z,4.20
2023-01-11T02:09:35.309Z,4.15
2023-01-11T02:12:42.137Z,4.13
2023-01-11T02:15:44.617Z,4.19
2023-01-11T02:18:47.424Z,4.25
2023-01-11T02:22:00.499Z,4.13
2023-01-11T02:25:20.675Z,4.15
2023-01-11T02:28:43.295Z,4.13
2023-01-11T02:32:00.668Z,4.19
2023-01-11T02:35:25.041Z,4.13
2023-01-11T02:38:43.217Z,4.09
2023-01-11T02:42:09.321Z,4.08
2023-01-11T02:45:17.338Z,4.07
2023-01-11T02:48:25.719Z,4.10
2023-01-11T02:51:40.070Z,3.97
2023-01-11T02:54:43.795Z,3.95
2023-01-11T02:57:47.314Z,3.90
2023-01-11T03:00:50.653Z,3.87
2023-01-11T03:03:54.015Z,3.88
2023-01-11T03:07:24.112Z,3.80
2023-01-11T03:10:50.258Z,3.69
2023-01-11T03:14:21.005Z,3.68
2023-01-11T03:17:47.311Z,3.65
2023-01-11T03:20:59.397Z,3.59
2023-01-11T03:24:29.313Z,3.53
2023-01-11T03:27:38.152Z,3.51
2023-01-11T03:30:47.654Z,3.45
2023-01-11T03:34:11.312Z,3.34
2023-01-11T03:37:20.215Z,3.24
2023-01-11T03:40:30.622Z,3.24
2023-01-11T03:43:36.638Z,3.31
2023-01-11T03:46:48.756Z,3.31
2023-01-11T03:49:54.381Z,3.22
2023-01-11T03:53:01.885Z,3.23
2023-01-11T03:56:07.572Z,3.17
2023-01-11T03:59:10.443Z,3.13
2023-01-11T04:02:18.805Z,3.13
2023-01-11T04:05:21.756Z,3.07
2023-01-11T04:08:24.411Z,2.98
2023-01-11T04:11:27.290Z,3.03
2023-01-11T04:14:29.825Z,3.10
2023-01-11T04:17:32.566Z,3.07
2023-01-11T04:20:37.086Z,3.07
2023-01-11T04:23:40.060Z,3.04
2023-01-11T04:26:42.521Z,2.88
2023-01-11T04:29:45.478Z,2.92
2023-01-11T04:32:48.051Z,2.93
2023-01-11T04:35:51.026Z,2.84
2023-01-11T04:38:53.704Z,2.94
2023-01-11T04:42:15.150Z,2.90
2023-01-11T04:45:17.626Z,2.90
2023-01-11T04:48:20.664Z,2.79
2023-01-11T04:51:23.324Z,2.74
2023-01-11T04:54:26.233Z,2.79
2023-01-11T04:57:28.751Z,2.70
2023-01-11T05:00:31.653Z,2.66
2023-01-11T05:03:34.159Z,2.72
2023-01-11T05:06:36.970Z,2.64
2023-01-11T05:09:40.848Z,2.59
2023-01-11T05:12:43.647Z,2.61
2023-01-11T05:15:46.858Z,2.66
2023-01-11T05:18:53.644Z,2.66
2023-01-11T05:21:56.127Z,2.64
2023-01-11T05:24:58.894Z,2.55
2023-01-11T05:28:01.452Z,2.52
2023-01-11T05:31:04.515Z,2.48
2023-01-11T05:34:08.148Z,2.52
2023-01-11T05:37:10.983Z,2.50
2023-01-11T05:40:13.729Z,2.57
2023-01-11T05:43:16.495Z,2.61
2023-01-11T05:46:19.169Z,2.45
2023-01-11T05:49:22.137Z,2.45
2023-01-11T05:52:24.665Z,2.44
2023-01-11T05:55:27.429Z,2.45
2023-01-11T05:58:29.899Z,2.38
2023-01-11T06:01:32.799Z,2.31
2023-01-11T06:04:35.653Z,2.33
2023-01-11T06:07:38.231Z,2.42
2023-01-11T06:10:41.353Z,2.37
2023-01-11T06:13:43.942Z,2.39
2023-01-11T06:16:46.905Z,2.51
2023-01-11T06:19:49.502Z,2.46
2023-01-11T06:22:52.312Z,2.46
2023-01-11T06:25:55.196Z,2.45
2023-01-11T06:28:58.245Z,2.48
2023-01-11T06:32:01.164Z,2.46
2023-01-11T06:35:04.229Z,2.46
2023-01-11T06:38:08.346Z,2.55
2023-01-11T06:41:11.900Z,2.55
2023-01-11T06:44:14.390Z,2.48
2023-01-11T06:47:17.184Z,2.50
2023-01-11T06:50:19.949Z,2.49
2023-01-11T06:53:23.671Z,2.35
2023-01-11T06:56:26.177Z,2.33
2023-01-11T06:59:28.968Z,2.41
2023-01-11T07:02:32.129Z,2.44
2023-01-11T07:05:36.263Z,2.52
2023-01-11T07:08:38.852Z,2.51
2023-01-11T07:11:42.090Z,2.46
2023-01-11T07:14:44.553Z,2.43
2023-01-11T07:17:49.399Z,2.33
2023-01-11T07:20:52.175Z,2.33
2023-01-11T07:23:55.524Z,2.38
2023-01-11T07:27:00.842Z,2.39
2023-01-11T07:30:04.053Z,2.45
2023-01-11T07:33:07.598Z,2.45
2023-01-11T07:36:10.385Z,2.47
2023-01-11T07:39:12.947Z,2.47
2023-01-11T07:42:34.446Z,2.44
2023-01-11T07:45:47.217Z,2.34
2023-01-11T07:48:50.173Z,2.30
2023-01-11T07:51:52.968Z,2.27
2023-01-11T07:54:55.827Z,2.27
2023-01-11T07:57:58.466Z,2.34
2023-01-11T08:01:01.529Z,2.43
2023-01-11T08:04:04.766Z,2.48
2023-01-11T08:07:07.248Z,2.47
2023-01-11T08:10:10.900Z,2.43
2023-01-11T08:13:32.670Z,2.54
2023-01-11T08:16:35.485Z,2.54
